Pagina principale
METAR-TAF:

METAR-TAF

Aeroporti :

Fort Richardson, Alaska, Stati Uniti

latitudine: 61-15-45N, longitudine: 149-39-17W, altezza: 115 m

Osservazione

Il bollettino è stato emesso 35 minuti fa, alle 12:55 UTC
Vento 14 kt da sud/sud-est con raffiche fino a 20 kt
Temperature 9°C
Umidità 49%
Pressione 1010 hPa
Visibilità: 12.9 km
Nubi sparse ad un'altezza di 8000 ft

METAR: PAFR 221255Z AUTO 15014G20KT 8SM SCT080 09/M01 A2983 RMK AO2 PK WND 15026/43 SLP108 T00901011 $

Ora: 05:30 (13:30 UTC)


TAF: mancante

Osservazioni e previsioni meteorologiche di più di 4000 aeroporti (messaggi METAR e TAF).

Le stazioni disponibili sono rappresentate dai dischi gialli e rossi sulla carta.

Puntare il mouse per vedere il nome della stazione.

Clicca sopra per visualizzare le osservazioni e previsioni meteorologiche.

Per cambiare la mappa : fare clic sui pulsanti verdi con una croce nera per ingrandire, il pulsante verde con un trattino per diminuire, o sulla freccia verde per le mappe adiacenti.


METAR-TAF: